Time;durP1;ratioP1;P1;durP2;ratioP2;P2;SDS_P1;SDS_P2;PMS_P1;PMS_P2;Temp;Humidity;BMP_temperature;BMP_pressure;BME280_temperature;BME280_humidity;BME280_pressure;Samples;Min_cycle;Max_cycle;Signal;HPM_P1;HPM_P2
2022/05/25 00:00:00;;;;;;;16.17;6.13;;;;;;;10.09;86.61;101063.53;5067005;28;20417;-85
2022/05/25 00:02:26;;;;;;;15.90;6.35;;;;;;;10.09;86.76;101066.22;5031964;28;20635;-85
2022/05/25 00:04:52;;;;;;;16.70;6.13;;;;;;;10.07;87.01;101069.97;5063773;28;20050;-85
2022/05/25 00:07:19;;;;;;;17.42;6.30;;;;;;;10.06;87.19;101073.63;5065916;28;20032;-85
2022/05/25 00:09:44;;;;;;;19.25;6.35;;;;;;;10.05;86.29;101077.28;5066259;28;20056;-86
2022/05/25 00:12:10;;;;;;;15.45;6.13;;;;;;;10.03;86.42;101071.13;5067675;28;20028;-86
2022/05/25 00:14:36;;;;;;;17.05;6.32;;;;;;;10.01;86.65;101068.56;5064947;28;20043;-86
2022/05/25 00:17:02;;;;;;;16.90;6.40;;;;;;;10.04;86.98;101071.03;5064248;28;20031;-85
2022/05/25 00:22:11;;;;;;;16.75;6.57;;;;;;;10.04;87.13;101070.19;5065086;28;20074;-86
2022/05/25 00:24:37;;;;;;;17.90;6.68;;;;;;;10.05;87.15;101071.91;5067241;28;20036;-85
2022/05/25 00:27:02;;;;;;;16.27;6.60;;;;;;;10.03;87.25;101074.72;5067852;28;20028;-85
2022/05/25 00:29:27;;;;;;;16.50;6.90;;;;;;;10.06;87.59;101074.50;5068768;28;20136;-85
2022/05/25 00:31:53;;;;;;;17.23;6.95;;;;;;;10.03;87.13;101085.44;5059482;28;20044;-85
2022/05/25 00:34:18;;;;;;;20.65;8.18;;;;;;;10.03;87.70;101072.03;5066505;28;20138;-85
2022/05/25 00:36:43;;;;;;;18.17;7.35;;;;;;;10.03;87.55;101072.03;5063989;28;20036;-85
2022/05/25 00:39:09;;;;;;;18.52;7.82;;;;;;;10.03;87.33;101080.09;5063600;28;20036;-85
2022/05/25 00:41:35;;;;;;;18.10;7.20;;;;;;;10.01;87.70;101071.25;5064863;28;20048;-85
2022/05/25 00:44:01;;;;;;;18.42;7.47;;;;;;;9.99;87.56;101078.56;5060477;28;20120;-85
2022/05/25 00:46:27;;;;;;;18.55;7.40;;;;;;;9.98;86.92;101074.13;5067292;28;20450;-85
2022/05/25 00:48:59;;;;;;;17.88;7.53;;;;;;;9.94;86.97;101084.25;5069145;28;20427;-85
2022/05/25 00:51:30;;;;;;;17.30;7.28;;;;;;;9.92;87.22;101082.63;5053497;28;20039;-85
2022/05/25 00:54:02;;;;;;;19.00;7.97;;;;;;;9.90;87.26;101089.94;5070890;28;20040;-85
2022/05/25 00:56:29;;;;;;;17.92;7.18;;;;;;;9.90;88.10;101090.78;5068447;28;20107;-85
2022/05/25 00:59:07;;;;;;;19.27;8.05;;;;;;;9.94;87.72;101091.41;5067526;28;20106;-85
2022/05/25 01:01:32;;;;;;;18.70;7.82;;;;;;;9.89;87.72;101094.41;5072730;28;20368;-82
2022/05/25 01:03:58;;;;;;;19.65;7.93;;;;;;;9.90;87.93;101092.59;5071721;28;20443;-83
2022/05/25 01:07:06;;;;;;;18.70;7.38;;;;;;;9.92;87.44;101096.88;5067675;28;20029;-82
2022/05/25 01:09:47;;;;;;;19.58;7.90;;;;;;;9.93;88.17;101100.47;5066254;28;20082;-83
2022/05/25 01:12:16;;;;;;;18.95;7.68;;;;;;;9.89;87.69;101101.63;5067435;28;20397;-83
2022/05/25 01:14:52;;;;;;;19.42;7.80;;;;;;;9.88;88.05;101102.56;5064476;28;20028;-82
2022/05/25 01:17:35;;;;;;;20.45;7.53;;;;;;;9.84;88.01;101101.94;5069548;28;20086;-82
2022/05/25 01:20:14;;;;;;;20.52;7.93;;;;;;;9.85;88.16;101097.41;5069818;28;20039;-82
2022/05/25 01:23:22;;;;;;;18.83;7.83;;;;;;;9.87;87.78;101106.22;5066468;28;20036;-82
2022/05/25 01:26:09;;;;;;;19.27;8.77;;;;;;;9.88;88.17;101102.56;5065993;28;20028;-83
2022/05/25 01:28:47;;;;;;;21.63;8.35;;;;;;;9.89;88.21;101107.84;5065801;28;20564;-82
2022/05/25 01:31:21;;;;;;;18.20;7.78;;;;;;;9.83;87.83;101102.88;5064291;28;20040;-82
2022/05/25 01:33:57;;;;;;;18.10;7.40;;;;;;;9.81;87.07;101102.13;5067620;28;20032;-83
2022/05/25 01:37:05;;;;;;;18.95;8.20;;;;;;;9.83;87.45;101108.25;5064364;28;20028;-83
2022/05/25 01:39:35;;;;;;;19.20;8.15;;;;;;;9.77;87.81;101098.78;5055594;28;20064;-83
2022/05/25 01:42:09;;;;;;;18.70;8.38;;;;;;;9.76;87.11;101097.03;5074468;28;20017;-83
2022/05/25 01:44:43;;;;;;;20.05;7.38;;;;;;;9.74;87.32;101111.56;5062681;28;20068;-83
2022/05/25 01:47:10;;;;;;;22.60;8.93;;;;;;;9.73;87.73;101115.19;5053242;28;20433;-83
2022/05/25 01:49:53;;;;;;;19.25;8.55;;;;;;;9.73;87.46;101115.19;5070506;28;20408;-82
2022/05/25 01:52:24;;;;;;;19.23;8.68;;;;;;;9.68;87.76;101117.28;5054590;28;20067;-82
2022/05/25 01:54:54;;;;;;;18.77;8.50;;;;;;;9.69;87.84;101111.81;5052480;28;20352;-82
2022/05/25 01:57:24;;;;;;;17.63;8.43;;;;;;;9.67;87.84;101116.44;5064263;28;20024;-82
2022/05/25 01:59:49;;;;;;;20.05;8.70;;;;;;;9.66;87.92;101117.41;5066390;28;20037;-82
2022/05/25 02:05:04;;;;;;;20.45;8.93;;;;;;;9.65;88.36;101115.69;5059357;28;20118;-82
2022/05/25 02:08:21;;;;;;;19.63;8.48;;;;;;;9.67;87.67;101120.97;5053392;28;20037;-83
2022/05/25 02:10:49;;;;;;;19.08;8.30;;;;;;;9.63;87.99;101114.91;4951150;29;20617;-82
2022/05/25 02:13:29;;;;;;;23.65;9.07;;;;;;;9.65;88.23;101114.81;4938489;28;20673;-82
2022/05/25 02:16:22;;;;;;;19.70;8.55;;;;;;;9.67;87.85;101115.59;4971634;28;20368;-82
2022/05/25 02:19:08;;;;;;;19.52;8.65;;;;;;;9.64;87.92;101113.97;4970179;28;20122;-82
2022/05/25 02:21:36;;;;;;;19.20;8.60;;;;;;;9.62;88.33;101113.22;4960379;28;20092;-82
2022/05/25 02:24:12;;;;;;;19.77;9.25;;;;;;;9.64;87.95;101124.69;4970375;28;20058;-82
2022/05/25 02:26:47;;;;;;;23.73;9.40;;;;;;;9.62;88.00;101118.59;4972112;28;20082;-82
2022/05/25 02:29:18;;;;;;;19.23;8.32;;;;;;;9.60;87.92;101121.38;4953081;28;20054;-82
2022/05/25 02:31:49;;;;;;;20.17;8.25;;;;;;;9.61;88.00;101130.28;4951388;28;20034;-82
2022/05/25 02:34:20;;;;;;;19.55;9.00;;;;;;;9.61;88.10;101136.47;4951698;28;20065;-82
2022/05/25 02:36:47;;;;;;;19.08;8.00;;;;;;;9.61;87.74;101130.28;4967281;28;20052;-82
2022/05/25 02:39:13;;;;;;;21.42;9.48;;;;;;;9.60;87.55;101133.91;4953408;28;20516;-82
2022/05/25 02:41:48;;;;;;;21.45;8.10;;;;;;;9.56;87.41;101135.94;4955162;28;20027;-82
2022/05/25 02:44:13;;;;;;;20.05;7.90;;;;;;;9.52;87.43;101137.09;4967269;28;20034;-82
2022/05/25 02:46:38;;;;;;;20.05;8.00;;;;;;;9.52;87.57;101138.94;5015117;28;20048;-82
2022/05/25 02:49:03;;;;;;;19.90;7.90;;;;;;;9.51;87.69;101139.88;5050206;28;20029;-82
2022/05/25 02:51:29;;;;;;;17.70;7.38;;;;;;;9.52;87.71;101145.13;5052467;28;20384;-82
2022/05/25 02:53:54;;;;;;;18.48;7.38;;;;;;;9.50;87.46;101140.81;5051860;28;20029;-82
2022/05/25 02:56:19;;;;;;;19.13;7.40;;;;;;;9.49;87.37;101141.78;5067807;28;20107;-82
2022/05/25 02:58:45;;;;;;;20.15;7.32;;;;;;;9.49;87.55;101150.72;5062114;28;20021;-82
2022/05/25 03:01:10;;;;;;;17.73;7.18;;;;;;;9.50;87.46;101155.09;5061028;28;20039;-82
2022/05/25 03:03:37;;;;;;;23.15;8.25;;;;;;;9.49;87.42;101148.03;5063833;28;20016;-83
2022/05/25 03:06:04;;;;;;;18.38;7.72;;;;;;;9.49;87.45;101145.34;5062568;28;20068;-82
2022/05/25 03:08:29;;;;;;;19.42;7.13;;;;;;;9.49;87.32;101145.34;5051774;28;20201;-82
2022/05/25 03:10:55;;;;;;;17.85;7.10;;;;;;;9.50;87.26;101156.91;5060896;28;20148;-82
2022/05/25 03:13:20;;;;;;;17.65;6.85;;;;;;;9.50;87.04;101156.91;5051930;28;20451;-82
2022/05/25 03:15:45;;;;;;;20.70;7.60;;;;;;;9.47;87.00;101157.13;5067292;28;20032;-82
2022/05/25 03:18:11;;;;;;;21.83;6.90;;;;;;;9.47;87.24;101159.81;5056366;28;20024;-82
2022/05/25 03:20:36;;;;;;;19.27;7.38;;;;;;;9.47;87.09;101159.81;5059285;28;20100;-82
2022/05/25 03:23:02;;;;;;;16.13;6.32;;;;;;;9.42;87.09;101171.69;5054831;28;20151;-82
2022/05/25 03:25:27;;;;;;;16.02;6.22;;;;;;;9.42;86.95;101155.59;5051592;28;20033;-83
2022/05/25 03:27:52;;;;;;;17.42;6.75;;;;;;;9.36;86.67;101158.66;5060170;28;20492;-83
2022/05/25 03:30:20;;;;;;;17.95;6.18;;;;;;;9.33;86.67;101150.81;5052928;28;20333;-82
2022/05/25 03:32:46;;;;;;;18.05;6.65;;;;;;;9.30;86.85;101158.19;5053657;28;20229;-82
2022/05/25 03:35:12;;;;;;;16.52;6.45;;;;;;;9.29;86.94;101160.00;5069135;28;20114;-82
2022/05/25 03:37:38;;;;;;;18.80;6.18;;;;;;;9.27;87.21;101168.16;5068150;28;20028;-82
2022/05/25 03:40:05;;;;;;;19.48;7.07;;;;;;;9.28;87.41;101166.31;5053871;28;20392;-82
2022/05/25 03:42:30;;;;;;;17.90;6.32;;;;;;;9.25;87.30;101175.44;5063887;28;20174;-82
2022/05/25 03:44:56;;;;;;;19.77;7.20;;;;;;;9.25;87.18;101172.75;5053979;28;20029;-82
2022/05/25 03:47:21;;;;;;;17.25;7.13;;;;;;;9.25;87.37;101177.25;5061786;28;20025;-82
2022/05/25 03:49:46;;;;;;;21.73;7.68;;;;;;;9.27;88.06;101183.41;5059727;28;20365;-82
2022/05/25 03:52:12;;;;;;;18.80;7.00;;;;;;;9.26;87.40;101182.50;5060046;28;20041;-82
2022/05/25 03:54:37;;;;;;;19.65;6.50;;;;;;;9.25;87.61;101187.97;5049472;28;20025;-82
2022/05/25 03:57:04;;;;;;;20.13;6.65;;;;;;;9.24;87.75;101191.63;5063992;28;20103;-82
2022/05/25 03:59:30;;;;;;;17.13;6.68;;;;;;;9.25;87.62;101187.97;5066474;28;20028;-82
2022/05/25 04:01:55;;;;;;;18.98;6.72;;;;;;;9.26;87.65;101192.38;5068952;28;20028;-83
2022/05/25 04:04:20;;;;;;;17.67;5.50;;;;;;;9.24;87.40;101192.50;5060656;28;20126;-82
2022/05/25 04:06:45;;;;;;;16.10;6.47;;;;;;;9.25;87.36;101190.66;5051333;28;20112;-82
2022/05/25 04:09:11;;;;;;;18.52;6.55;;;;;;;9.25;87.87;101194.22;5050992;28;20052;-83
2022/05/25 04:11:37;;;;;;;18.65;6.88;;;;;;;9.27;87.74;101194.13;5059343;28;20031;-82
2022/05/25 04:14:03;;;;;;;17.92;6.53;;;;;;;9.26;87.80;101200.44;5032140;28;20124;-82
2022/05/25 04:16:28;;;;;;;16.35;5.90;;;;;;;9.28;88.01;101195.81;5061624;28;20115;-82
2022/05/25 04:18:54;;;;;;;20.17;6.90;;;;;;;9.29;87.84;101200.25;5068114;28;20034;-81
2022/05/25 04:21:19;;;;;;;17.13;6.30;;;;;;;9.31;87.95;101203.69;5067195;28;20091;-82
2022/05/25 04:23:44;;;;;;;18.42;6.85;;;;;;;9.35;88.18;101199.00;5061022;28;20457;-82
2022/05/25 04:26:10;;;;;;;18.08;6.55;;;;;;;9.34;88.27;101210.69;5051449;28;20033;-82
2022/05/25 04:28:36;;;;;;;20.23;6.57;;;;;;;9.35;88.20;101204.38;5057783;28;20033;-83
2022/05/25 04:31:02;;;;;;;14.57;5.90;;;;;;;9.38;88.16;101204.16;5056526;28;20033;-82
2022/05/25 04:33:29;;;;;;;15.88;5.85;;;;;;;9.41;88.07;101212.91;5059978;28;20032;-82
2022/05/25 04:35:55;;;;;;;19.30;6.95;;;;;;;9.44;88.32;101210.03;5065536;28;20025;-83
2022/05/25 04:38:20;;;;;;;16.45;6.07;;;;;;;9.48;88.09;101207.16;5059033;28;20025;-82
2022/05/25 04:40:45;;;;;;;19.58;6.28;;;;;;;9.51;88.53;101206.94;5057470;28;20063;-81
2022/05/25 04:43:13;;;;;;;18.45;6.75;;;;;;;9.52;88.39;101214.06;5047862;28;20029;-82
2022/05/25 04:45:43;;;;;;;19.60;5.90;;;;;;;9.53;88.49;101210.38;5052419;28;20101;-82
2022/05/25 04:48:09;;;;;;;;;;;;;;;9.64;87.38;101215.09;5055506;28;20047;-82
2022/05/25 04:50:40;;;;;;;18.45;6.25;;;;;;;9.59;88.72;101212.66;5067102;28;20350;-82
2022/05/25 04:53:06;;;;;;;19.95;6.68;;;;;;;9.61;88.88;101219.69;5062932;28;20021;-81
2022/05/25 04:58:18;;;;;;;17.65;5.93;;;;;;;9.68;89.24;101220.16;5060136;28;20511;-81
2022/05/25 05:00:44;;;;;;;17.88;5.65;;;;;;;9.71;88.97;101222.66;5054703;28;20029;-82
2022/05/25 05:03:09;;;;;;;16.95;5.70;;;;;;;9.74;88.96;101222.44;5063069;28;20087;-81
2022/05/25 05:05:35;;;;;;;16.15;5.57;;;;;;;9.78;89.16;101232.03;5052659;28;20082;-82
2022/05/25 05:08:00;;;;;;;18.65;6.47;;;;;;;9.84;89.33;101229.91;5054936;28;20089;-82
2022/05/25 05:10:26;;;;;;;18.02;6.25;;;;;;;9.89;89.30;101222.44;5050569;28;20124;-82
2022/05/25 05:12:51;;;;;;;16.05;5.55;;;;;;;9.94;89.11;101231.03;5053074;28;20040;-81
2022/05/25 05:15:16;;;;;;;19.38;6.13;;;;;;;10.00;89.24;101236.03;5064974;28;20044;-82
2022/05/25 05:17:41;;;;;;;17.15;6.00;;;;;;;10.05;88.72;101233.03;5060297;28;20040;-82
2022/05/25 05:20:08;;;;;;;16.08;5.90;;;;;;;10.08;88.92;101228.31;5058870;28;20506;-82
2022/05/25 05:22:34;;;;;;;17.88;5.60;;;;;;;10.11;88.88;101225.44;5061244;28;20105;-81
2022/05/25 05:24:59;;;;;;;18.92;6.28;;;;;;;10.15;89.00;101221.59;5067596;28;20040;-81
2022/05/25 05:27:25;;;;;;;19.67;5.85;;;;;;;10.20;89.05;101215.91;5062861;28;20469;-81
2022/05/25 05:29:50;;;;;;;16.13;5.47;;;;;;;10.26;nan;101214.66;5060898;28;20032;-81
2022/05/25 05:32:16;;;;;;;18.67;5.93;;;;;;;10.32;88.77;101214.22;5056573;28;20024;-82
2022/05/25 05:34:41;;;;;;;21.23;6.28;;;;;;;10.38;89.02;101213.88;5061789;28;20164;-82
2022/05/25 05:37:15;;;;;;;21.15;6.80;;;;;;;10.44;88.58;101207.22;5059807;28;20487;-81
2022/05/25 05:39:44;;;;;;;17.95;6.18;;;;;;;10.47;88.24;101213.25;5065349;28;20036;-82
2022/05/25 05:42:14;;;;;;;17.70;5.70;;;;;;;10.53;88.28;101211.09;5055189;28;20040;-82
2022/05/25 05:44:48;;;;;;;18.65;6.05;;;;;;;10.56;88.15;101206.41;5067668;28;20132;-82
2022/05/25 05:47:19;;;;;;;19.90;5.93;;;;;;;10.62;88.52;101210.50;5069991;28;20036;-81
2022/05/25 05:49:45;;;;;;;22.30;6.57;;;;;;;10.73;87.73;101205.25;5053873;28;20619;-82
2022/05/25 05:52:11;;;;;;;18.13;5.65;;;;;;;10.86;87.25;101201.72;5068911;28;20040;-81
2022/05/25 05:54:37;;;;;;;19.58;6.72;;;;;;;10.89;87.56;101205.03;5071294;28;20089;-82
2022/05/25 05:57:03;;;;;;;18.60;6.47;;;;;;;10.92;87.24;101207.53;5064641;28;20345;-83
2022/05/25 05:59:28;;;;;;;19.52;6.43;;;;;;;10.98;87.16;101214.31;5056293;28;20036;-80
2022/05/25 06:01:54;;;;;;;21.15;6.57;;;;;;;11.02;87.02;101226.56;5065405;28;20025;-82
2022/05/25 06:04:19;;;;;;;16.80;6.28;;;;;;;11.05;86.85;101218.28;5067723;28;20028;-83
2022/05/25 06:06:44;;;;;;;15.98;5.68;;;;;;;11.09;86.75;101222.50;5072576;28;20058;-83
2022/05/25 06:09:10;;;;;;;19.23;6.20;;;;;;;11.12;87.53;101222.28;5060454;28;20373;-83
2022/05/25 06:11:41;;;;;;;18.55;5.97;;;;;;;11.15;86.79;101230.13;5067546;28;20032;-82
2022/05/25 06:14:08;;;;;;;19.38;6.43;;;;;;;11.23;86.74;101226.94;5060308;28;20115;-82
2022/05/25 06:19:26;;;;;;;25.55;7.38;;;;;;;11.37;85.98;101239.41;5060958;28;20371;-82
2022/05/25 06:22:07;;;;;;;16.67;6.90;;;;;;;11.45;86.67;101246.94;5060193;28;20090;-82
2022/05/25 06:24:41;;;;;;;18.30;6.47;;;;;;;11.51;86.24;101244.66;5053048;28;20025;-82
2022/05/25 06:27:11;;;;;;;21.65;7.60;;;;;;;11.53;85.56;101256.19;5065763;28;20016;-82
2022/05/25 06:29:39;;;;;;;21.10;7.70;;;;;;;11.55;85.54;101248.00;5047276;28;20244;-83
2022/05/25 06:32:09;;;;;;;18.75;7.78;;;;;;;11.61;85.78;101255.66;5058858;28;20021;-81
2022/05/25 06:34:36;;;;;;;20.15;7.55;;;;;;;11.68;86.07;101259.63;5058029;28;20032;-82
2022/05/25 06:37:01;;;;;;;20.60;7.65;;;;;;;11.75;86.60;101251.97;5050685;28;20103;-82
2022/05/25 06:39:27;;;;;;;22.80;7.78;;;;;;;11.82;85.74;101258.63;5065014;28;20055;-83
2022/05/25 06:41:53;;;;;;;23.58;11.25;;;;;;;11.85;84.48;101261.09;5062738;28;20559;-83
2022/05/25 06:44:19;;;;;;;22.30;10.45;;;;;;;11.89;84.85;101259.91;5058154;28;20241;-82
2022/05/25 06:46:44;;;;;;;21.70;11.65;;;;;;;11.95;84.97;101268.53;5062340;28;20177;-81
2022/05/25 06:49:09;;;;;;;30.02;11.68;;;;;;;12.00;85.15;101274.47;5072675;28;20085;-82
2022/05/25 06:51:37;;;;;;;24.52;10.68;;;;;;;12.04;84.07;101267.88;5071228;28;20024;-83
2022/05/25 06:54:03;;;;;;;24.27;10.73;;;;;;;12.09;84.00;101275.63;5064939;28;20757;-82
2022/05/25 06:56:29;;;;;;;24.83;12.32;;;;;;;12.09;84.08;101273.78;5089123;28;20027;-84
2022/05/25 06:58:56;;;;;;;23.60;10.65;;;;;;;12.11;84.14;101277.25;5080038;28;20024;-82
2022/05/25 07:01:22;;;;;;;22.50;10.38;;;;;;;12.19;83.94;101273.97;5077042;28;20028;-82
2022/05/25 07:03:49;;;;;;;21.30;10.35;;;;;;;12.24;84.76;101278.06;5062437;28;20479;-83
2022/05/25 07:06:17;;;;;;;22.30;11.25;;;;;;;12.29;83.38;101290.34;5064364;28;20094;-83
2022/05/25 07:08:43;;;;;;;22.15;9.95;;;;;;;12.31;83.46;101293.78;5078816;28;20463;-82
2022/05/25 07:11:11;;;;;;;23.02;11.13;;;;;;;12.36;84.39;101287.06;5085789;28;20024;-83
2022/05/25 07:13:37;;;;;;;23.15;10.68;;;;;;;12.40;84.31;101287.69;5071658;28;20105;-83
2022/05/25 07:16:06;;;;;;;23.48;10.75;;;;;;;12.43;83.38;101294.69;5067858;28;20028;-83
2022/05/25 07:18:32;;;;;;;24.40;11.55;;;;;;;12.47;84.00;101294.34;5069823;28;20385;-82
2022/05/25 07:21:02;;;;;;;24.02;11.18;;;;;;;12.52;83.67;101302.97;5064794;28;20021;-84
2022/05/25 07:23:27;;;;;;;22.67;11.13;;;;;;;12.61;83.90;101301.44;5068393;28;20013;-82
2022/05/25 07:25:53;;;;;;;22.27;11.07;;;;;;;12.71;83.87;101307.00;5068639;28;20036;-83
2022/05/25 07:28:19;;;;;;;31.08;11.95;;;;;;;12.77;82.32;101309.22;5071020;28;20043;-82
2022/05/25 07:30:47;;;;;;;21.73;10.73;;;;;;;12.85;82.00;101312.19;5076927;28;20111;-79
2022/05/25 07:33:13;;;;;;;25.15;12.15;;;;;;;12.94;82.13;101302.53;5035724;28;20540;-82
2022/05/25 07:35:39;;;;;;;21.80;9.93;;;;;;;12.99;81.12;101308.47;5076606;28;20028;-83
2022/05/25 07:38:05;;;;;;;22.48;10.18;;;;;;;13.02;80.81;101302.81;5066822;28;20032;-83
2022/05/25 07:40:35;;;;;;;21.10;10.48;;;;;;;13.03;80.34;101311.78;5082087;28;20127;-83
2022/05/25 07:43:04;;;;;;;22.33;11.15;;;;;;;13.04;80.23;101308.09;5067664;28;20897;-83
2022/05/25 07:45:29;;;;;;;24.02;10.27;;;;;;;13.06;80.78;101303.44;5078346;28;20032;-84
2022/05/25 07:47:55;;;;;;;22.80;10.63;;;;;;;13.12;80.43;101305.69;5067523;28;20041;-83
2022/05/25 07:50:22;;;;;;;23.77;9.95;;;;;;;13.20;80.90;101302.41;5067184;28;20395;-82
2022/05/25 07:52:50;;;;;;;20.73;9.13;;;;;;;13.26;79.30;101310.00;5077681;28;20078;-83
2022/05/25 07:55:16;;;;;;;24.65;9.82;;;;;;;13.34;80.10;101317.50;5067879;28;20051;-81
2022/05/25 07:57:42;;;;;;;21.92;9.93;;;;;;;13.43;80.99;101304.19;5072615;28;20020;-83
2022/05/25 08:00:08;;;;;;;21.42;9.40;;;;;;;13.51;79.16;101316.25;5067090;28;20552;-83
2022/05/25 08:08:10;;;;;;;19.95;8.73;;;;;;;13.88;80.84;101308.78;5076977;28;20035;-82
2022/05/25 08:10:36;;;;;;;21.02;8.02;;;;;;;13.98;80.31;101315.19;5070065;28;20082;-83
2022/05/25 08:13:03;;;;;;;21.92;8.23;;;;;;;14.06;79.02;101316.41;5063814;28;20028;-82
2022/05/25 08:15:29;;;;;;;18.00;6.90;;;;;;;14.10;78.28;101318.72;5068332;28;20028;-83
2022/05/25 08:17:55;;;;;;;19.80;7.40;;;;;;;14.20;76.93;101320.69;5076159;28;20089;-82
2022/05/25 08:20:21;;;;;;;18.02;6.97;;;;;;;14.22;75.21;101316.88;5072536;28;20067;-83
2022/05/25 08:22:47;;;;;;;20.05;7.13;;;;;;;14.26;76.03;101321.03;5076717;28;20051;-81
2022/05/25 08:25:15;;;;;;;15.30;6.13;;;;;;;14.27;74.66;101320.03;5082992;28;20069;-82
2022/05/25 08:27:41;;;;;;;18.45;7.15;;;;;;;14.31;75.52;101318.81;5078271;28;20062;-82
2022/05/25 08:30:17;;;;;;;19.42;7.07;;;;;;;14.38;76.20;101316.47;5080369;28;20491;-81
2022/05/25 08:32:42;;;;;;;18.02;5.90;;;;;;;14.47;74.46;101309.47;5064028;28;20025;-84
2022/05/25 08:35:08;;;;;;;18.48;5.93;;;;;;;14.54;74.44;101310.66;5077963;28;20104;-84
2022/05/25 08:37:33;;;;;;;15.13;5.78;;;;;;;14.57;74.71;101305.00;5070441;28;20032;-85
2022/05/25 08:39:59;;;;;;;18.25;5.90;;;;;;;14.61;74.85;101306.50;5061986;28;20021;-85
2022/05/25 08:42:29;;;;;;;19.67;6.00;;;;;;;14.72;76.13;101304.75;5071593;28;20023;-85
2022/05/25 08:44:56;;;;;;;19.58;6.00;;;;;;;14.78;75.30;101299.66;5072967;28;20028;-85
2022/05/25 08:47:21;;;;;;;17.83;5.93;;;;;;;14.88;75.79;101293.50;5069354;28;20032;-86
2022/05/25 08:49:48;;;;;;;17.20;6.00;;;;;;;14.92;74.77;101298.50;5076631;28;20043;-86
2022/05/25 08:52:28;;;;;;;17.55;5.50;;;;;;;14.95;74.05;101302.78;5072003;28;20027;-85
2022/05/25 08:54:54;;;;;;;13.35;5.13;;;;;;;14.99;71.68;101301.53;5068548;28;20029;-85
2022/05/25 08:57:50;;;;;;;13.57;4.70;;;;;;;15.10;72.61;101300.66;5061502;28;20024;-86
2022/05/25 09:00:18;;;;;;;12.95;4.55;;;;;;;15.15;69.93;101311.94;5071012;28;20465;-87
2022/05/25 09:03:07;;;;;;;14.52;4.10;;;;;;;15.23;69.23;101314.84;5066149;28;20514;-86
2022/05/25 09:05:41;;;;;;;8.10;3.43;;;;;;;15.33;68.68;101309.47;5075778;28;20111;-86
2022/05/25 09:08:45;;;;;;;13.90;3.80;;;;;;;15.38;69.48;101310.81;5072185;28;20131;-87
2022/05/25 09:11:15;;;;;;;12.88;3.72;;;;;;;15.42;69.08;101311.41;5074219;28;20163;-86
2022/05/25 09:14:01;;;;;;;11.57;4.03;;;;;;;15.47;67.86;101303.72;5065200;28;20049;-85
2022/05/25 09:16:31;;;;;;;9.35;3.42;;;;;;;15.45;65.95;101316.56;5068106;28;20104;-85
2022/05/25 09:19:04;;;;;;;11.15;3.42;;;;;;;15.42;64.94;101318.66;5076271;28;20367;-85
2022/05/25 09:21:33;;;;;;;9.40;2.60;;;;;;;15.31;63.47;101320.44;5085271;28;20024;-85
2022/05/25 09:24:02;;;;;;;;;;;;;;;15.34;65.81;101325.63;5070097;28;20117;-86
2022/05/25 09:26:27;;;;;;;9.10;2.95;;;;;;;15.31;64.09;101320.44;5086274;28;20264;-86
2022/05/25 09:28:57;;;;;;;7.78;2.92;;;;;;;15.29;64.08;101327.84;5071482;28;20036;-85
2022/05/25 09:31:28;;;;;;;7.82;2.83;;;;;;;15.29;62.40;101324.28;5072322;28;20037;-86
2022/05/25 09:34:00;;;;;;;8.23;2.92;;;;;;;15.26;63.35;101319.16;5069419;28;20036;-86
2022/05/25 09:36:49;;;;;;;9.13;2.70;;;;;;;15.23;62.87;101327.50;5065126;28;20025;-85
2022/05/25 09:39:26;;;;;;;8.40;2.40;;;;;;;15.22;63.34;101326.66;5063065;28;20024;-86
2022/05/25 09:41:59;;;;;;;7.47;2.42;;;;;;;15.35;62.16;101324.59;5075121;28;20073;-86
2022/05/25 09:44:28;;;;;;;7.47;2.85;;;;;;;15.53;62.52;101324.88;5078851;28;20164;-84
2022/05/25 09:46:58;;;;;;;5.18;2.13;;;;;;;15.75;63.19;101311.31;5077216;28;20028;-86
2022/05/25 09:50:04;;;;;;;5.82;2.33;;;;;;;15.87;63.25;101319.25;5068041;28;20112;-86
2022/05/25 09:52:43;;;;;;;8.15;2.10;;;;;;;15.88;61.67;101323.66;5053815;28;20041;-85
2022/05/25 09:55:40;;;;;;;5.10;2.03;;;;;;;15.82;60.88;101324.19;5049580;28;20048;-87
2022/05/25 09:58:10;;;;;;;8.45;2.38;;;;;;;15.73;59.76;101330.41;5035220;28;20136;-86
2022/05/25 10:00:35;;;;;;;10.25;2.58;;;;;;;15.71;60.69;101335.97;5049628;28;20029;-85
2022/05/25 10:03:25;;;;;;;4.23;2.17;;;;;;;15.69;60.92;101340.63;5037376;28;20118;-86
2022/05/25 10:05:54;;;;;;;9.18;2.72;;;;;;;15.70;61.47;101341.53;5035758;28;21001;-86
2022/05/25 10:08:37;;;;;;;10.60;2.53;;;;;;;15.69;60.93;101335.22;5054015;28;20048;-85
2022/05/25 10:11:28;;;;;;;7.15;2.60;;;;;;;15.70;62.67;101336.09;5054784;28;20053;-85
2022/05/25 10:13:56;;;;;;;6.85;2.80;;;;;;;15.65;60.16;101341.94;5053808;28;20128;-86
2022/05/25 10:16:24;;;;;;;5.43;2.33;;;;;;;15.66;59.08;101345.47;5048987;28;20041;-86
2022/05/25 10:18:49;;;;;;;5.22;2.05;;;;;;;15.79;60.14;101331.75;5054077;28;20037;-86
2022/05/25 10:21:23;;;;;;;3.03;1.83;;;;;;;15.83;57.56;101341.34;5059290;28;20043;-86
2022/05/25 10:23:49;;;;;;;10.27;2.00;;;;;;;15.79;55.42;101339.88;5064517;28;20041;-84
2022/05/25 10:26:31;;;;;;;5.50;1.92;;;;;;;15.77;58.99;101339.13;5073051;28;20044;-85
2022/05/25 10:29:01;;;;;;;5.28;1.92;;;;;;;15.83;58.05;101336.78;5061733;28;20017;-85
2022/05/25 10:37:07;;;;;;;3.20;1.92;;;;;;;15.73;56.75;101325.84;5078923;28;20189;-86
2022/05/25 10:39:43;;;;;;;14.10;2.35;;;;;;;15.69;57.81;101318.97;5070147;28;20116;-85
2022/05/25 10:42:22;;;;;;;7.38;1.92;;;;;;;15.71;57.20;101326.94;5067980;28;20472;-85
2022/05/25 10:45:06;;;;;;;3.15;1.45;;;;;;;15.71;58.10;101324.25;5069170;28;20072;-85
2022/05/25 10:47:41;;;;;;;7.63;2.03;;;;;;;15.67;56.60;101320.97;5067714;28;20029;-85
2022/05/25 10:50:15;;;;;;;6.70;1.70;;;;;;;15.65;56.66;101322.97;5063645;28;20040;-85
2022/05/25 10:52:48;;;;;;;4.05;1.92;;;;;;;15.76;57.74;101321.16;5072880;28;20388;-86
2022/05/25 10:55:14;;;;;;;5.60;2.17;;;;;;;15.85;59.40;101323.06;5066098;28;20083;-86
2022/05/25 10:58:07;;;;;;;5.82;1.88;;;;;;;15.86;59.45;101332.94;5062940;28;20183;-85
2022/05/25 11:00:51;;;;;;;5.80;1.98;;;;;;;15.80;58.18;101338.88;5067853;28;20101;-82
2022/05/25 11:03:31;;;;;;;6.50;2.10;;;;;;;15.73;58.60;101322.28;5068780;28;20055;-82
2022/05/25 11:06:15;;;;;;;6.25;1.95;;;;;;;15.77;58.72;101322.84;5072136;28;20028;-82
2022/05/25 11:09:01;;;;;;;5.22;2.20;;;;;;;15.77;59.22;101330.97;5067867;28;20028;-82
2022/05/25 11:11:42;;;;;;;4.43;1.88;;;;;;;15.92;59.36;101324.25;5078129;28;20051;-84
2022/05/25 11:14:36;;;;;;;5.30;2.20;;;;;;;16.17;60.99;101335.63;5069826;28;20036;-83
2022/05/25 11:17:07;;;;;;;8.32;2.30;;;;;;;16.22;54.75;101330.63;5070272;28;20125;-81
2022/05/25 11:19:53;;;;;;;5.45;1.70;;;;;;;16.25;56.78;101328.53;5090584;28;20501;-83
2022/05/25 11:22:40;;;;;;;5.63;2.03;;;;;;;16.31;57.19;101312.69;5080118;28;20508;-84
2022/05/25 11:25:30;;;;;;;10.55;2.55;;;;;;;16.48;58.29;101313.88;5065539;28;20032;-83
2022/05/25 11:28:10;;;;;;;3.72;2.17;;;;;;;16.70;58.41;101301.91;5073573;28;20029;-82
2022/05/25 11:30:54;;;;;;;6.35;2.08;;;;;;;16.88;55.48;101315.66;5051096;28;20024;-84
2022/05/25 11:33:34;;;;;;;4.80;1.90;;;;;;;17.04;54.35;101307.81;5071033;28;20028;-81
2022/05/25 11:36:08;;;;;;;;;;;;;;;17.10;53.98;101312.66;5070584;28;20475;-82
2022/05/25 11:38:58;;;;;;;3.15;1.88;;;;;;;17.18;51.95;101317.38;5066703;28;19939;-84
2022/05/25 11:41:45;;;;;;;7.82;2.10;;;;;;;17.30;53.85;101312.63;5064714;28;20365;-83
2022/05/25 11:44:37;;;;;;;5.55;2.10;;;;;;;17.37;54.09;101302.06;5057720;28;20199;-83
2022/05/25 11:47:35;;;;;;;6.65;2.05;;;;;;;17.35;53.31;101299.50;5065152;28;20078;-84
2022/05/25 11:50:13;;;;;;;7.70;2.28;;;;;;;17.25;52.93;101301.38;5070709;28;20055;-84
2022/05/25 11:53:00;;;;;;;7.17;2.17;;;;;;;17.30;53.04;101299.06;5077295;28;21065;-84
2022/05/25 11:55:47;;;;;;;5.22;1.90;;;;;;;17.37;53.99;101310.22;5079279;28;20362;-82
2022/05/25 11:58:31;;;;;;;4.03;1.90;;;;;;;17.38;53.26;101306.47;5065111;28;20097;-83
2022/05/25 12:01:09;;;;;;;9.05;2.47;;;;;;;17.30;52.89;101299.91;5068405;28;20127;-82